Maylene, Alabama
Current Conditions -  °F | °C
As of 9:53 AM on Thursday 29 Jan 2015 (Local Time) from KEET Reporting Station
Clear Clear  
Wind Chill: 55°   Ceiling: Unl
Heat Index: 55°   Visibility: 10mi
Dew Point: 33°   Wind: 10mph
Humidity: 43%   Direction: 190°S
Pressure: 30.26"   Gusts: NA
Location:  33.2°N, 86.86°W
Report Text: KEET 291553Z AUTO 19009KT 10SM CLR 13/01 A3026 RMK AO2 SLP247 T01280006
Loading
Personal Weather Stations






























Interactive Weather Map New forecast layout! Learn more

10-Day Weather Forecast

Advertisements
Track Severe Weather on mobile